Terminal Aerodrome Forecast
Issued by NWS Knoxville/Tri Cities, TN

Home | Current Version | Previous Version | Text Only | Print | Product List | Glossary On
Versions: 1 2 3 4 5 6 7 8 9 10 11 12 13 14 15 16 17 18 19 20 21 22 23 24 25 26 27 28 29 30 31 32 33 34 35 36 37 38 39 40 41 42
000
FTUS44 KMRX 281120
TAFTYS
TAF
KTYS 281120Z 2812/2912 00000KT P6SM SCT015 SCT050 BKN090
      TEMPO 2812/2813 4SM BR SCT004
     FM281400 31007KT P6SM SCT050 BKN110
     FM281900 30008KT P6SM FEW060 SCT150
     FM290100 VRB03KT P6SM SCT250=

USA.gov is the U.S. government's official web portal to all federal, state and local government web resources and services.